Time;durP1;ratioP1;P1;durP2;ratioP2;P2;SDS_P1;SDS_P2;PMS_P1;PMS_P2;Temp;Humidity;BMP_temperature;BMP_pressure;BME280_temperature;BME280_humidity;BME280_pressure;Samples;Min_cycle;Max_cycle;Signal;HPM_P1;HPM_P2
2022/06/09 00:00:18;;;;;;;15.27;3.97;;;;;;;-142.64;100.00;58178.75;5050601;28;20065;-60
2022/06/09 00:02:46;;;;;;;15.45;3.00;;;;;;;-142.64;100.00;58178.75;5050693;28;20056;-60
2022/06/09 00:05:12;;;;;;;8.80;2.75;;;;;;;-142.64;100.00;58178.75;5051801;28;20025;-59
2022/06/09 00:07:38;;;;;;;15.75;3.70;;;;;;;-142.64;100.00;58178.75;5050114;28;20048;-59
2022/06/09 00:10:16;;;;;;;11.25;2.95;;;;;;;-142.64;100.00;58178.75;5050380;28;20567;-59
2022/06/09 00:12:42;;;;;;;11.38;2.60;;;;;;;-142.64;100.00;58178.75;5050628;28;20025;-59
2022/06/09 00:15:09;;;;;;;12.20;2.88;;;;;;;-142.64;100.00;58178.75;5051958;28;20029;-59
2022/06/09 00:17:35;;;;;;;15.85;3.13;;;;;;;-142.64;100.00;58178.75;5051651;28;20409;-60
2022/06/09 00:20:00;;;;;;;12.48;2.95;;;;;;;-142.64;100.00;58178.75;5051771;28;20032;-59
2022/06/09 00:22:26;;;;;;;11.85;2.63;;;;;;;-142.64;100.00;58178.75;5050342;28;20384;-59
2022/06/09 00:24:51;;;;;;;12.88;2.75;;;;;;;-142.64;100.00;58178.75;5050449;28;20468;-59
2022/06/09 00:27:16;;;;;;;12.50;2.72;;;;;;;-142.64;100.00;58178.75;5051545;28;20033;-60
2022/06/09 00:29:42;;;;;;;5.80;2.40;;;;;;;-142.64;100.00;58178.75;5051785;28;20044;-60
2022/06/09 00:32:08;;;;;;;15.55;2.75;;;;;;;-142.64;100.00;58178.75;5050340;28;20050;-61
2022/06/09 00:34:33;;;;;;;10.68;2.80;;;;;;;-142.64;100.00;58178.75;5050397;28;20033;-60
2022/06/09 00:36:59;;;;;;;11.82;2.88;;;;;;;-142.64;100.00;58178.75;5051506;28;20047;-60
2022/06/09 00:39:24;;;;;;;11.73;2.70;;;;;;;-142.64;100.00;58178.75;5054136;28;20060;-61
2022/06/09 00:41:50;;;;;;;11.73;2.50;;;;;;;-142.64;100.00;58178.75;5055272;28;20131;-60
2022/06/09 00:44:27;;;;;;;9.43;2.30;;;;;;;-142.64;100.00;58178.75;5053906;28;20037;-61
2022/06/09 00:46:56;;;;;;;8.63;2.72;;;;;;;-142.64;100.00;58178.75;5053929;28;20045;-60
2022/06/09 00:49:26;;;;;;;13.80;3.45;;;;;;;-142.64;100.00;58178.75;5054068;28;20037;-61
2022/06/09 00:51:56;;;;;;;14.57;3.13;;;;;;;-142.64;100.00;58178.75;5054838;28;20037;-60
2022/06/09 00:54:27;;;;;;;12.00;3.00;;;;;;;-142.64;100.00;58178.75;5053866;28;20102;-60
2022/06/09 00:57:00;;;;;;;10.60;2.72;;;;;;;-142.64;100.00;58178.75;5054962;28;20115;-60
2022/06/09 00:59:26;;;;;;;8.45;2.80;;;;;;;-142.64;100.00;58178.75;5054882;28;20049;-59
2022/06/09 01:01:53;;;;;;;12.00;3.00;;;;;;;-142.64;100.00;58178.75;5054704;28;20480;-61
2022/06/09 01:04:20;;;;;;;12.32;3.28;;;;;;;-142.64;100.00;58178.75;5055036;28;20053;-60
2022/06/09 01:06:48;;;;;;;9.48;2.75;;;;;;;-142.64;100.00;58178.75;5053645;28;20029;-60
2022/06/09 01:09:17;;;;;;;10.27;2.17;;;;;;;-142.64;100.00;58178.75;5054777;28;20132;-60
2022/06/09 01:11:48;;;;;;;10.50;2.58;;;;;;;-142.64;100.00;58178.75;5054588;28;20033;-60
2022/06/09 01:14:16;;;;;;;6.88;2.80;;;;;;;-142.64;100.00;58178.75;5053563;28;20029;-61
2022/06/09 01:17:16;;;;;;;10.63;2.60;;;;;;;-142.64;100.00;58178.75;5054439;28;20438;-61
2022/06/09 01:20:04;;;;;;;11.80;2.80;;;;;;;-142.64;100.00;58178.75;5053721;28;20044;-60
2022/06/09 01:23:09;;;;;;;8.88;3.08;;;;;;;-142.64;100.00;58178.75;5053363;28;20029;-60
2022/06/09 01:25:46;;;;;;;11.00;2.75;;;;;;;-142.64;100.00;58178.75;5054593;28;20066;-61
2022/06/09 01:28:44;;;;;;;7.68;2.88;;;;;;;-142.64;100.00;58178.75;5053057;28;20032;-61
2022/06/09 01:31:28;;;;;;;12.50;2.70;;;;;;;-142.64;100.00;58178.75;5053184;28;20429;-59
2022/06/09 01:34:02;;;;;;;11.57;2.50;;;;;;;-142.64;100.00;58178.75;5053203;28;20035;-60
2022/06/09 01:36:34;;;;;;;11.35;2.42;;;;;;;-142.64;100.00;58178.75;5053606;28;20488;-61
2022/06/09 01:39:03;;;;;;;11.07;2.80;;;;;;;-142.64;100.00;58178.75;5053897;28;20043;-59
2022/06/09 01:41:28;;;;;;;14.20;2.90;;;;;;;-142.64;100.00;58178.75;5052502;28;20040;-60
2022/06/09 01:43:55;;;;;;;10.20;2.67;;;;;;;-142.64;100.00;58178.75;5052884;28;20041;-60
2022/06/09 01:46:23;;;;;;;11.77;2.85;;;;;;;-142.64;100.00;58178.75;5052783;28;20135;-60
2022/06/09 01:48:51;;;;;;;10.45;2.50;;;;;;;-142.64;100.00;58178.75;5053996;28;20025;-60
2022/06/09 01:51:18;;;;;;;10.18;2.72;;;;;;;-142.64;100.00;58178.75;5051682;28;20029;-60
2022/06/09 01:53:46;;;;;;;7.13;2.50;;;;;;;-142.64;100.00;58178.75;5052705;28;20044;-60
2022/06/09 01:56:20;;;;;;;16.83;2.65;;;;;;;-142.64;100.00;58178.75;5052550;28;20035;-60
2022/06/09 01:59:08;;;;;;;8.43;2.53;;;;;;;-142.64;100.00;58178.75;5052482;28;20433;-60
2022/06/09 02:01:39;;;;;;;9.52;2.95;;;;;;;-142.64;100.00;58178.75;5053796;28;20045;-60
2022/06/09 02:04:07;;;;;;;8.05;2.38;;;;;;;-142.64;100.00;58178.75;5052673;28;20036;-60
2022/06/09 02:06:34;;;;;;;11.98;2.67;;;;;;;-142.64;100.00;58178.75;5052214;28;20037;-59
2022/06/09 02:09:00;;;;;;;13.30;2.58;;;;;;;-142.64;100.00;58178.75;5053566;28;20462;-59
2022/06/09 02:11:27;;;;;;;9.95;1.98;;;;;;;-142.64;100.00;58178.75;5052311;28;20032;-60
2022/06/09 02:13:56;;;;;;;11.63;2.58;;;;;;;-142.64;100.00;58178.75;5053447;28;20377;-59
2022/06/09 02:16:22;;;;;;;8.55;2.67;;;;;;;-142.64;100.00;58178.75;5053357;28;20079;-60
2022/06/09 02:18:50;;;;;;;9.82;2.95;;;;;;;-142.64;100.00;58178.75;5053397;28;20083;-60
2022/06/09 02:21:26;;;;;;;8.43;2.30;;;;;;;-142.64;100.00;58178.75;5052074;28;20069;-60
2022/06/09 02:23:53;;;;;;;7.10;2.45;;;;;;;-142.64;100.00;58178.75;5052263;28;20434;-60
2022/06/09 02:26:18;;;;;;;9.25;2.40;;;;;;;-142.64;100.00;58178.75;5051849;28;20475;-59
2022/06/09 02:28:44;;;;;;;9.95;2.53;;;;;;;-142.64;100.00;58178.75;5052067;28;20041;-59
2022/06/09 02:31:10;;;;;;;8.43;2.03;;;;;;;-142.64;100.00;58178.75;5051908;28;20032;-61
2022/06/09 02:33:35;;;;;;;5.70;2.38;;;;;;;-142.64;100.00;58178.75;5051782;28;20032;-60
2022/06/09 02:36:01;;;;;;;7.15;2.30;;;;;;;-142.64;100.00;58178.75;5052898;28;20033;-59
2022/06/09 02:38:26;;;;;;;6.78;2.78;;;;;;;-142.64;100.00;58178.75;5051898;28;20029;-59
2022/06/09 02:40:54;;;;;;;8.63;2.08;;;;;;;-142.64;100.00;58178.75;5051891;28;20041;-60
2022/06/09 02:43:20;;;;;;;6.65;1.73;;;;;;;-142.64;100.00;58178.75;5051682;28;20036;-61
2022/06/09 02:45:45;;;;;;;8.05;2.83;;;;;;;-142.64;100.00;58178.75;5052906;28;20035;-60
2022/06/09 02:48:12;;;;;;;7.28;2.03;;;;;;;-142.64;100.00;58178.75;5052760;28;20137;-61
2022/06/09 02:50:37;;;;;;;7.43;2.25;;;;;;;-142.64;100.00;58178.75;5051857;28;20025;-61
2022/06/09 02:53:03;;;;;;;6.03;1.83;;;;;;;-142.64;100.00;58178.75;5052627;28;20095;-60
2022/06/09 02:55:29;;;;;;;7.53;2.22;;;;;;;-142.64;100.00;58178.75;5052824;28;20041;-60
2022/06/09 02:57:54;;;;;;;8.93;2.05;;;;;;;-142.64;100.00;58178.75;5052751;28;20048;-60
2022/06/09 03:00:20;;;;;;;6.10;2.25;;;;;;;-142.64;100.00;58178.75;5053017;28;20033;-58
2022/06/09 03:02:54;;;;;;;5.05;1.92;;;;;;;-142.64;100.00;58178.75;5051190;28;20070;-60
2022/06/09 03:05:20;;;;;;;7.40;2.40;;;;;;;-142.64;100.00;58178.75;5052746;28;20040;-60
2022/06/09 03:07:45;;;;;;;8.00;2.13;;;;;;;-142.64;100.00;58178.75;5051096;28;20139;-61
2022/06/09 03:10:11;;;;;;;7.00;2.00;;;;;;;-142.64;100.00;58178.75;5052617;28;20040;-59
2022/06/09 03:12:36;;;;;;;5.78;2.13;;;;;;;-142.64;100.00;58178.75;5051062;28;20419;-60
2022/06/09 03:15:02;;;;;;;8.20;1.83;;;;;;;-142.64;100.00;58178.75;5052485;28;20044;-60
2022/06/09 03:17:28;;;;;;;4.72;1.88;;;;;;;-142.64;100.00;58178.75;5052195;28;20086;-60
2022/06/09 03:19:53;;;;;;;6.72;2.20;;;;;;;-142.64;100.00;58178.75;5052578;28;20112;-59
2022/06/09 03:22:19;;;;;;;13.05;2.15;;;;;;;-142.64;100.00;58178.75;5052333;28;20114;-60
2022/06/09 03:24:44;;;;;;;7.22;2.30;;;;;;;-142.64;100.00;58178.75;5050814;28;20399;-60
2022/06/09 03:27:09;;;;;;;6.03;1.88;;;;;;;-142.64;100.00;58178.75;5050777;28;20041;-59
2022/06/09 03:29:35;;;;;;;7.00;1.85;;;;;;;-142.64;100.00;58178.75;5052243;28;20037;-59
2022/06/09 03:32:01;;;;;;;7.43;2.60;;;;;;;-142.64;100.00;58178.75;5050581;28;20033;-59
2022/06/09 03:34:26;;;;;;;4.28;2.05;;;;;;;-142.64;100.00;58178.75;5052235;28;20037;-61
2022/06/09 03:36:52;;;;;;;8.40;2.70;;;;;;;-142.64;100.00;58178.75;5050956;28;20033;-60
2022/06/09 03:39:18;;;;;;;4.47;2.08;;;;;;;-142.64;100.00;58178.75;5052096;28;20025;-60
2022/06/09 03:41:43;;;;;;;5.85;2.95;;;;;;;-142.64;100.00;58178.75;5052027;28;20048;-59
2022/06/09 03:44:08;;;;;;;5.40;2.10;;;;;;;-142.64;100.00;58178.75;5052060;28;20037;-59
2022/06/09 03:46:34;;;;;;;4.75;1.77;;;;;;;-142.64;100.00;58178.75;5051895;28;20446;-59
2022/06/09 03:48:59;;;;;;;4.55;2.13;;;;;;;-142.64;100.00;58178.75;5052081;28;20485;-60
2022/06/09 03:51:25;;;;;;;8.32;2.53;;;;;;;-142.64;100.00;58178.75;5051933;28;20060;-61
2022/06/09 03:53:50;;;;;;;5.95;1.55;;;;;;;-142.64;100.00;58178.75;5050807;28;20025;-60
2022/06/09 03:56:18;;;;;;;9.27;2.05;;;;;;;-142.64;100.00;58178.75;5050905;28;20032;-59
2022/06/09 03:58:44;;;;;;;4.82;1.40;;;;;;;-142.64;100.00;58178.75;5051995;28;20029;-59
2022/06/09 04:01:13;;;;;;;5.07;1.80;;;;;;;-142.64;100.00;58178.75;5051751;28;20029;-59
2022/06/09 04:03:42;;;;;;;3.63;1.60;;;;;;;-142.64;100.00;58178.75;5052015;28;20025;-58
2022/06/09 04:06:13;;;;;;;7.13;1.70;;;;;;;-142.64;100.00;58178.75;5033944;28;20024;-59
2022/06/09 04:08:39;;;;;;;6.45;1.35;;;;;;;-142.64;100.00;58178.75;5051806;28;20045;-59
2022/06/09 04:11:04;;;;;;;4.60;1.40;;;;;;;-142.64;100.00;58178.75;5051991;28;20036;-60
2022/06/09 04:13:29;;;;;;;5.13;1.23;;;;;;;-142.64;100.00;58178.75;5051742;28;20037;-59
2022/06/09 04:15:55;;;;;;;7.72;1.67;;;;;;;-142.64;100.00;58178.75;5055822;28;20040;-60
2022/06/09 04:18:20;;;;;;;6.50;1.60;;;;;;;-142.64;100.00;58178.75;5054638;28;20435;-59
2022/06/09 04:20:45;;;;;;;4.05;1.40;;;;;;;-142.64;100.00;58178.75;5055857;28;20110;-60
2022/06/09 04:23:11;;;;;;;9.25;1.98;;;;;;;-142.64;100.00;58178.75;5054327;28;20484;-60
2022/06/09 04:25:38;;;;;;;8.85;2.05;;;;;;;-142.64;100.00;58178.75;5053961;28;20067;-61
2022/06/09 04:28:03;;;;;;;7.22;1.33;;;;;;;-142.64;100.00;58178.75;5054150;28;20127;-60
2022/06/09 04:30:29;;;;;;;5.70;1.58;;;;;;;-142.64;100.00;58178.75;5055155;28;20571;-60
2022/06/09 04:32:54;;;;;;;4.50;1.20;;;;;;;-142.64;100.00;58178.75;5055425;28;20383;-59
2022/06/09 04:35:20;;;;;;;3.42;1.30;;;;;;;-142.64;100.00;58178.75;5037511;28;20119;-60
2022/06/09 04:38:00;;;;;;;4.38;1.50;;;;;;;-142.64;100.00;58178.75;5055446;28;20095;-60
2022/06/09 04:40:30;;;;;;;4.93;1.75;;;;;;;-142.64;100.00;58178.75;5055357;28;20037;-60
2022/06/09 04:42:55;;;;;;;11.40;1.55;;;;;;;-142.64;100.00;58178.75;5055234;28;20029;-60
2022/06/09 04:45:21;;;;;;;5.40;1.40;;;;;;;-142.64;100.00;58178.75;5055300;28;20033;-59
2022/06/09 04:47:46;;;;;;;5.32;1.60;;;;;;;-142.64;100.00;58178.75;5053943;28;20029;-60
2022/06/09 04:50:12;;;;;;;6.43;1.80;;;;;;;-142.64;100.00;58178.75;5055444;28;20045;-59
2022/06/09 04:52:38;;;;;;;6.28;1.40;;;;;;;-142.64;100.00;58178.75;5055030;28;20056;-60
2022/06/09 04:55:05;;;;;;;5.82;1.92;;;;;;;-142.64;100.00;58178.75;5055505;28;20503;-60
2022/06/09 04:57:30;;;;;;;5.90;1.55;;;;;;;-142.64;100.00;58178.75;5053560;28;20044;-59
2022/06/09 04:59:55;;;;;;;5.78;1.30;;;;;;;-142.64;100.00;58178.75;5054840;28;20036;-61
2022/06/09 05:02:21;;;;;;;10.85;1.95;;;;;;;-142.64;100.00;58178.75;5054801;28;20033;-58
2022/06/09 05:04:46;;;;;;;7.15;1.38;;;;;;;-142.64;100.00;58178.75;5054884;28;20025;-60
2022/06/09 05:07:12;;;;;;;4.15;1.50;;;;;;;-142.64;100.00;58178.75;5036707;28;20049;-58
2022/06/09 05:09:37;;;;;;;6.22;1.52;;;;;;;-142.64;100.00;58178.75;5053573;28;20037;-59
2022/06/09 05:12:04;;;;;;;5.65;1.73;;;;;;;-142.64;100.00;58178.75;5054389;28;20036;-59
2022/06/09 05:14:29;;;;;;;4.53;1.73;;;;;;;-142.64;100.00;58178.75;5054774;28;20107;-59
2022/06/09 05:16:54;;;;;;;9.18;1.95;;;;;;;-142.64;100.00;58178.75;5054527;28;20452;-60
2022/06/09 05:19:20;;;;;;;3.97;2.00;;;;;;;-142.64;100.00;58178.75;5054738;28;20033;-59
2022/06/09 05:21:46;;;;;;;4.00;1.33;;;;;;;-142.64;100.00;58178.75;5054054;28;20037;-59
2022/06/09 05:24:11;;;;;;;4.90;1.60;;;;;;;-142.64;100.00;58178.75;5053686;28;20381;-59
2022/06/09 05:26:37;;;;;;;5.30;1.80;;;;;;;-142.64;100.00;58178.75;5053498;28;20049;-59
2022/06/09 05:29:03;;;;;;;7.55;2.30;;;;;;;-142.64;100.00;58178.75;5054370;28;20041;-60
2022/06/09 05:31:28;;;;;;;6.05;2.00;;;;;;;-142.64;100.00;58178.75;5054390;28;20044;-60
2022/06/09 05:33:54;;;;;;;4.85;2.30;;;;;;;-142.64;100.00;58178.75;5054498;28;20039;-61
2022/06/09 05:36:19;;;;;;;8.15;2.40;;;;;;;-142.64;100.00;58178.75;5052956;28;20037;-60
2022/06/09 05:46:58;;;;;;;6.65;3.10;;;;;;;-142.64;100.00;58178.75;5052792;28;20133;-61
2022/06/09 05:49:24;;;;;;;9.02;2.88;;;;;;;-142.64;100.00;58178.75;5054758;28;20044;-60
2022/06/09 05:51:50;;;;;;;6.30;3.00;;;;;;;-142.64;100.00;58178.75;5053990;28;20037;-61
2022/06/09 05:54:16;;;;;;;7.28;3.55;;;;;;;-142.64;100.00;58178.75;5053885;28;20041;-62
2022/06/09 05:56:41;;;;;;;9.07;4.13;;;;;;;-142.64;100.00;58178.75;5054086;28;20044;-60
2022/06/09 05:59:06;;;;;;;12.60;3.72;;;;;;;-142.64;100.00;58178.75;5053695;28;20025;-61
2022/06/09 06:01:32;;;;;;;9.93;3.88;;;;;;;-142.64;100.00;58178.75;5053260;28;20467;-61
2022/06/09 06:03:58;;;;;;;9.57;4.10;;;;;;;-142.64;100.00;58178.75;5053628;28;20102;-61
2022/06/09 06:06:36;;;;;;;10.13;3.85;;;;;;;-142.64;100.00;58178.75;5052736;28;20063;-60
2022/06/09 06:09:02;;;;;;;7.90;4.10;;;;;;;-142.64;100.00;58178.75;5052354;28;20053;-61
2022/06/09 06:11:28;;;;;;;8.30;3.40;;;;;;;-142.64;100.00;58178.75;5053711;28;20025;-61
2022/06/09 06:13:56;;;;;;;6.90;3.60;;;;;;;-142.64;100.00;58178.75;5035799;28;20123;-61
2022/06/09 06:16:23;;;;;;;9.48;3.85;;;;;;;-142.64;100.00;58178.75;5052910;28;20515;-60
2022/06/09 06:18:49;;;;;;;6.57;3.75;;;;;;;-142.64;100.00;58178.75;5050395;28;20235;-61
2022/06/09 06:21:16;;;;;;;7.20;3.45;;;;;;;-142.64;100.00;58178.75;5052532;28;20484;-60
2022/06/09 06:23:41;;;;;;;9.02;3.50;;;;;;;-142.64;100.00;58178.75;5052028;28;20029;-61
2022/06/09 06:26:07;;;;;;;6.25;3.13;;;;;;;-142.64;100.00;58178.75;5052967;28;20051;-61
2022/06/09 06:28:32;;;;;;;7.07;3.55;;;;;;;-142.64;100.00;58178.75;5052219;28;20048;-61
2022/06/09 06:30:58;;;;;;;10.57;3.63;;;;;;;-142.64;100.00;58178.75;5053119;28;20029;-60
2022/06/09 06:34:01;;;;;;;7.85;3.17;;;;;;;-142.64;100.00;58178.75;5048004;28;20063;-63
2022/06/09 06:36:29;;;;;;;8.50;3.28;;;;;;;-142.64;100.00;58178.75;5051983;28;20033;-62
2022/06/09 06:38:55;;;;;;;8.43;3.03;;;;;;;-142.64;100.00;58178.75;5051858;28;20057;-62
2022/06/09 06:41:20;;;;;;;7.85;3.53;;;;;;;-142.64;100.00;58178.75;5052846;28;20065;-60
2022/06/09 06:43:47;;;;;;;11.20;3.40;;;;;;;-142.64;100.00;58178.75;5052297;28;20063;-60
2022/06/09 06:46:13;;;;;;;9.45;3.17;;;;;;;-142.64;100.00;58178.75;5051491;28;20056;-60
2022/06/09 06:48:38;;;;;;;5.65;3.30;;;;;;;-142.64;100.00;58178.75;5051716;28;20488;-60
2022/06/09 06:51:05;;;;;;;6.50;3.80;;;;;;;-142.64;100.00;58178.75;5052743;28;20044;-61
2022/06/09 06:53:31;;;;;;;6.72;3.20;;;;;;;-142.64;100.00;58178.75;5051589;28;20032;-61
2022/06/09 06:55:56;;;;;;;7.85;3.55;;;;;;;-142.64;100.00;58178.75;5052594;28;20035;-59
2022/06/09 06:58:21;;;;;;;7.93;3.70;;;;;;;-142.64;100.00;58178.75;5052501;28;20060;-61
2022/06/09 07:00:47;;;;;;;7.47;4.03;;;;;;;-142.64;100.00;58178.75;5051477;28;20024;-61
2022/06/09 07:03:12;;;;;;;7.72;3.67;;;;;;;-142.64;100.00;58178.75;5052175;28;20455;-61
2022/06/09 07:05:38;;;;;;;5.30;4.10;;;;;;;-142.64;100.00;58178.75;5051574;28;20029;-61
2022/06/09 07:08:04;;;;;;;9.15;4.55;;;;;;;-142.64;100.00;58178.75;5050969;28;20057;-60
2022/06/09 07:10:31;;;;;;;6.57;3.45;;;;;;;-142.64;100.00;58178.75;5051076;28;20033;-60
2022/06/09 07:12:58;;;;;;;5.93;2.83;;;;;;;-142.64;100.00;58178.75;5052432;28;20069;-62
2022/06/09 07:15:23;;;;;;;7.43;2.58;;;;;;;-142.64;100.00;58178.75;5052137;28;20033;-61
2022/06/09 07:17:49;;;;;;;9.02;2.45;;;;;;;-142.64;100.00;58178.75;5052347;28;20040;-61
2022/06/09 07:20:15;;;;;;;6.00;2.00;;;;;;;-142.64;100.00;58178.75;5052478;28;20037;-60
2022/06/09 07:22:40;;;;;;;6.13;2.40;;;;;;;-142.64;100.00;58178.75;5052353;28;20050;-61
2022/06/09 07:25:07;;;;;;;5.72;2.00;;;;;;;-142.64;100.00;58178.75;5052140;28;20029;-60
2022/06/09 07:27:33;;;;;;;5.70;2.10;;;;;;;-142.64;100.00;58178.75;5052393;28;20090;-60
2022/06/09 07:29:58;;;;;;;4.07;1.50;;;;;;;-142.64;100.00;58178.75;5052424;28;20493;-60
2022/06/09 07:32:24;;;;;;;5.80;1.52;;;;;;;-142.64;100.00;58178.75;5052069;28;20396;-60
2022/06/09 07:34:49;;;;;;;4.10;1.65;;;;;;;-142.64;100.00;58178.75;5052274;28;20033;-61
2022/06/09 07:37:16;;;;;;;5.47;1.77;;;;;;;-142.64;100.00;58178.75;5052165;28;20059;-60
2022/06/09 07:39:42;;;;;;;4.60;1.67;;;;;;;-142.64;100.00;58178.75;5050689;28;20044;-60
2022/06/09 07:42:07;;;;;;;7.15;1.88;;;;;;;-142.64;100.00;58178.75;5033224;28;20036;-60
2022/06/09 07:44:32;;;;;;;8.30;1.65;;;;;;;-142.64;100.00;58178.75;5049612;28;20120;-59
2022/06/09 07:46:58;;;;;;;6.90;1.55;;;;;;;-142.64;100.00;58178.75;5049753;28;20037;-61
2022/06/09 07:49:23;;;;;;;4.05;1.30;;;;;;;-142.64;100.00;58178.75;5053935;28;20036;-61
2022/06/09 07:51:48;;;;;;;4.10;1.40;;;;;;;-142.64;100.00;58178.75;5055198;28;20037;-59
2022/06/09 07:54:14;;;;;;;5.55;1.80;;;;;;;-142.64;100.00;58178.75;5054987;28;20087;-60
2022/06/09 07:56:40;;;;;;;6.30;1.23;;;;;;;-142.64;100.00;58178.75;5054943;28;20195;-60
2022/06/09 07:59:06;;;;;;;8.02;1.52;;;;;;;-142.64;100.00;58178.75;5055287;28;20115;-60
2022/06/09 08:01:31;;;;;;;7.18;1.85;;;;;;;-142.64;100.00;58178.75;5053902;28;20025;-59
2022/06/09 08:03:57;;;;;;;6.28;1.52;;;;;;;-142.64;100.00;58178.75;5054928;28;20054;-60
2022/06/09 08:06:22;;;;;;;4.40;1.33;;;;;;;-142.64;100.00;58178.75;5054895;28;20041;-59
2022/06/09 08:08:49;;;;;;;5.95;1.33;;;;;;;-142.64;100.00;58178.75;5053266;28;20052;-59
2022/06/09 08:11:14;;;;;;;6.32;1.73;;;;;;;-142.64;100.00;58178.75;5054723;28;20091;-60
2022/06/09 08:13:40;;;;;;;6.47;1.48;;;;;;;-142.64;100.00;58178.75;5054704;28;20434;-60
2022/06/09 08:16:06;;;;;;;6.65;2.00;;;;;;;-142.64;100.00;58178.75;5054786;28;20041;-61
2022/06/09 08:18:32;;;;;;;4.60;1.23;;;;;;;-142.64;100.00;58178.75;5054842;28;20057;-59
2022/06/09 08:20:57;;;;;;;5.15;1.45;;;;;;;-142.64;100.00;58178.75;5054765;28;20091;-61
2022/06/09 08:23:25;;;;;;;5.75;1.27;;;;;;;-142.64;100.00;58178.75;5054671;28;20037;-60
2022/06/09 08:25:53;;;;;;;4.15;1.50;;;;;;;-142.64;100.00;58178.75;5053372;28;20041;-60
2022/06/09 08:28:19;;;;;;;5.05;1.33;;;;;;;-142.64;100.00;58178.75;5054633;28;20412;-59
2022/06/09 08:30:45;;;;;;;5.45;1.52;;;;;;;-142.64;100.00;58178.75;5054652;28;20074;-59
2022/06/09 08:33:11;;;;;;;5.40;1.58;;;;;;;-142.64;100.00;58178.75;5054395;28;20128;-59
2022/06/09 08:35:37;;;;;;;7.53;1.70;;;;;;;-142.64;100.00;58178.75;5054256;28;20116;-58
2022/06/09 08:38:06;;;;;;;7.20;1.92;;;;;;;-142.64;100.00;58178.75;5054336;28;20029;-59
2022/06/09 08:40:51;;;;;;;5.03;1.38;;;;;;;-142.64;100.00;58178.75;5054517;28;20040;-60
2022/06/09 08:43:40;;;;;;;6.15;1.77;;;;;;;-142.64;100.00;58178.75;5053897;28;20129;-59
2022/06/09 08:46:39;;;;;;;6.93;1.42;;;;;;;-142.64;100.00;58178.75;5052998;28;20044;-60
2022/06/09 08:49:05;;;;;;;5.88;1.60;;;;;;;-142.64;100.00;58178.75;5054277;28;20064;-60
2022/06/09 08:51:59;;;;;;;7.38;2.08;;;;;;;-142.64;100.00;58178.75;5054128;28;20069;-60
2022/06/09 08:54:29;;;;;;;5.18;1.35;;;;;;;-142.64;100.00;58178.75;5051160;28;20041;-59
2022/06/09 08:56:54;;;;;;;4.72;1.63;;;;;;;-142.64;100.00;58178.75;5052594;28;20476;-58
2022/06/09 08:59:24;;;;;;;3.40;1.25;;;;;;;-142.64;100.00;58178.75;5053895;28;20037;-58
2022/06/09 09:01:56;;;;;;;7.90;2.10;;;;;;;-142.64;100.00;58178.75;5053854;28;20491;-59
2022/06/09 09:04:30;;;;;;;6.50;1.92;;;;;;;-142.64;100.00;58178.75;5052696;28;20033;-57
2022/06/09 09:07:14;;;;;;;5.13;1.48;;;;;;;-142.64;100.00;58178.75;5053537;28;20036;-58
2022/06/09 09:09:40;;;;;;;8.05;1.70;;;;;;;-142.64;100.00;58178.75;5052762;28;20071;-55
2022/06/09 09:12:21;;;;;;;5.00;1.58;;;;;;;-142.64;100.00;58178.75;5053872;28;20037;-58
2022/06/09 09:14:47;;;;;;;3.13;1.30;;;;;;;-142.64;100.00;58178.75;5053949;28;20078;-59
2022/06/09 09:17:21;;;;;;;5.35;1.77;;;;;;;-142.64;100.00;58178.75;5054021;28;20124;-59
2022/06/09 09:19:58;;;;;;;3.85;1.63;;;;;;;-142.64;100.00;58178.75;5053407;28;20033;-57
2022/06/09 09:22:56;;;;;;;4.00;2.15;;;;;;;-142.64;100.00;58178.75;5053420;28;20564;-56
2022/06/09 09:25:28;;;;;;;3.90;1.58;;;;;;;-142.64;100.00;58178.75;5038425;28;20508;-60
2022/06/09 09:27:54;;;;;;;3.55;1.13;;;;;;;-142.64;100.00;58178.75;5052253;28;20033;-57
2022/06/09 09:30:35;;;;;;;6.18;1.95;;;;;;;-142.64;100.00;58178.75;5053311;28;20120;-59
2022/06/09 09:33:01;;;;;;;6.13;1.90;;;;;;;-142.64;100.00;58178.75;5052196;28;20439;-60
2022/06/09 09:35:39;;;;;;;3.22;1.30;;;;;;;-142.64;100.00;58178.75;5053437;28;20033;-59
2022/06/09 09:38:06;;;;;;;5.32;1.50;;;;;;;-142.64;100.00;58178.75;5052154;28;20075;-59
2022/06/09 09:40:36;;;;;;;7.93;2.17;;;;;;;-142.64;100.00;58178.75;5051945;28;20376;-59
2022/06/09 09:43:14;;;;;;;4.90;1.70;;;;;;;-142.64;100.00;58178.75;5053279;28;20025;-58
2022/06/09 09:45:45;;;;;;;4.45;1.95;;;;;;;-142.64;100.00;58178.75;5053189;28;20040;-56
2022/06/09 09:48:17;;;;;;;6.10;1.90;;;;;;;-142.64;100.00;58178.75;5052751;28;20037;-57
2022/06/09 09:50:50;;;;;;;6.32;1.55;;;;;;;-142.64;100.00;58178.75;5052966;28;20063;-58
2022/06/09 09:53:18;;;;;;;5.00;1.58;;;;;;;-142.64;100.00;58178.75;5052927;28;20036;-58
2022/06/09 09:55:57;;;;;;;4.93;1.77;;;;;;;-142.64;100.00;58178.75;5053118;28;20037;-58
2022/06/09 09:58:25;;;;;;;4.10;1.40;;;;;;;-142.64;100.00;58178.75;5052956;28;20029;-60
2022/06/09 10:00:55;;;;;;;4.90;1.73;;;;;;;-142.64;100.00;58178.75;5052920;28;20041;-58
2022/06/09 10:08:35;;;;;;;5.28;1.52;;;;;;;-142.64;100.00;58178.75;5052552;28;20130;-54
2022/06/09 10:09:25;;;;;;;4.57;1.67;;;;;;;-142.64;100.00;58178.75;5052521;28;20080;-60
2022/06/09 10:11:56;;;;;;;4.53;1.88;;;;;;;-142.64;100.00;58178.75;5051873;28;20033;-55
2022/06/09 10:14:29;;;;;;;4.95;1.45;;;;;;;-142.64;100.00;58178.75;5051500;28;20116;-56
2022/06/09 10:16:55;;;;;;;5.88;1.80;;;;;;;-142.64;100.00;58178.75;5052594;28;20033;-55
2022/06/09 10:19:22;;;;;;;5.45;1.75;;;;;;;-142.64;100.00;58178.75;5051353;28;20048;-59
2022/06/09 10:21:57;;;;;;;4.53;1.98;;;;;;;-142.64;100.00;58178.75;5052458;28;20085;-55
2022/06/09 10:24:33;;;;;;;8.55;1.98;;;;;;;-142.64;100.00;58178.75;5051459;28;20037;-58
2022/06/09 10:26:58;;;;;;;5.85;1.70;;;;;;;-142.64;100.00;58178.75;5050027;28;20029;-54
2022/06/09 10:29:48;;;;;;;7.53;1.80;;;;;;;-142.64;100.00;58178.75;5050668;28;20060;-57
2022/06/09 10:32:22;;;;;;;3.80;1.42;;;;;;;-142.64;100.00;58178.75;5050620;28;20167;-54
2022/06/09 10:35:17;;;;;;;4.72;2.00;;;;;;;-142.64;100.00;58178.75;5050680;28;20392;-56
2022/06/09 10:37:58;;;;;;;6.60;1.52;;;;;;;-142.64;100.00;58178.75;5041711;28;20037;-60
2022/06/09 10:40:46;;;;;;;5.40;1.60;;;;;;;-142.64;100.00;58178.75;5051975;28;20488;-57
2022/06/09 10:43:27;;;;;;;2.65;1.38;;;;;;;-142.64;100.00;58178.75;5050236;28;20136;-54
2022/06/09 10:46:11;;;;;;;6.55;1.80;;;;;;;-142.64;100.00;58178.75;5050434;28;20406;-56
2022/06/09 10:57:40;;;;;;;5.25;2.10;;;;;;;-142.64;100.00;58178.75;5052118;28;20110;-56
2022/06/09 11:00:09;;;;;;;5.70;1.80;;;;;;;-142.64;100.00;58178.75;5051725;28;20033;-57
2022/06/09 11:02:34;;;;;;;5.80;2.25;;;;;;;-142.64;100.00;58178.75;5050275;28;20037;-52
2022/06/09 11:05:01;;;;;;;5.75;2.17;;;;;;;-142.64;100.00;58178.75;5050388;28;20032;-53
2022/06/09 11:07:41;;;;;;;7.10;2.10;;;;;;;-142.64;100.00;58178.75;5050134;28;20401;-53
2022/06/09 11:10:18;;;;;;;7.45;2.38;;;;;;;-142.64;100.00;58178.75;5051694;28;20062;-58
2022/06/09 11:12:55;;;;;;;7.65;2.45;;;;;;;-142.64;100.00;58178.75;5051772;28;20032;-57
2022/06/09 11:15:30;;;;;;;7.60;2.45;;;;;;;-142.64;100.00;58178.75;5051590;28;20041;-55
2022/06/09 11:18:17;;;;;;;7.22;2.45;;;;;;;-142.64;100.00;58178.75;5049967;28;20033;-53
2022/06/09 11:20:59;;;;;;;5.43;1.90;;;;;;;-142.64;100.00;58178.75;5051181;28;20032;-54
2022/06/09 11:23:43;;;;;;;6.35;1.92;;;;;;;-142.64;100.00;58178.75;5051438;28;20036;-56
2022/06/09 11:26:31;;;;;;;9.52;2.75;;;;;;;-142.64;100.00;58178.75;5049734;28;20043;-57
2022/06/09 11:29:15;;;;;;;7.40;2.13;;;;;;;-142.64;100.00;58178.75;5051533;28;20029;-56
2022/06/09 11:32:05;;;;;;;9.90;2.50;;;;;;;-142.64;100.00;58178.75;5051324;28;20100;-51
2022/06/09 11:34:40;;;;;;;9.05;2.35;;;;;;;-142.64;100.00;58178.75;5049920;28;20025;-59
2022/06/09 11:37:14;;;;;;;8.35;2.70;;;;;;;-142.64;100.00;58178.75;5051106;28;20060;-59